createdAt,value
2023-03-18T00:02:11.941Z,96.10
2023-03-18T00:04:40.974Z,96.10
2023-03-18T00:07:08.504Z,96.50
2023-03-18T00:09:35.918Z,96.40
2023-03-18T00:12:03.144Z,96.80
2023-03-18T00:14:30.665Z,97.00
2023-03-18T00:16:57.816Z,97.90
2023-03-18T00:19:25.396Z,97.60
2023-03-18T00:21:52.428Z,98.00
2023-03-18T00:24:19.532Z,98.30
2023-03-18T00:26:46.593Z,98.10
2023-03-18T00:29:13.776Z,98.80
2023-03-18T00:31:40.977Z,99.30
2023-03-18T00:34:08.279Z,99.40
2023-03-18T00:36:36.488Z,99.70
2023-03-18T00:39:04.216Z,99.90
2023-03-18T00:41:34.647Z,99.90
2023-03-18T00:44:02.054Z,99.90
2023-03-18T00:46:32.487Z,99.90
2023-03-18T00:49:02.251Z,99.90
2023-03-18T00:51:32.523Z,99.90
2023-03-18T00:54:02.320Z,99.90
2023-03-18T00:56:32.196Z,99.90
2023-03-18T00:59:00.372Z,99.90
2023-03-18T01:01:28.450Z,99.90
2023-03-18T01:03:56.281Z,99.90
2023-03-18T01:06:28.518Z,99.90
2023-03-18T01:08:56.996Z,99.90
2023-03-18T01:11:24.734Z,99.90
2023-03-18T01:13:53.168Z,99.90
2023-03-18T01:16:22.103Z,99.90
2023-03-18T01:18:49.950Z,99.90
2023-03-18T01:21:18.200Z,99.90
2023-03-18T01:23:45.434Z,99.90
2023-03-18T01:26:12.791Z,99.90
2023-03-18T01:28:39.862Z,99.90
2023-03-18T01:31:08.301Z,99.90
2023-03-18T01:33:35.922Z,99.90
2023-03-18T01:36:05.212Z,99.90
2023-03-18T01:38:33.116Z,99.90
2023-03-18T01:41:01.181Z,99.90
2023-03-18T01:43:31.875Z,99.90
2023-03-18T01:46:01.439Z,99.90
2023-03-18T01:48:38.163Z,99.90
2023-03-18T01:51:10.386Z,99.90
2023-03-18T01:53:44.985Z,99.90
2023-03-18T01:56:13.509Z,99.90
2023-03-18T01:58:46.763Z,99.90
2023-03-18T02:01:23.852Z,99.90
2023-03-18T02:03:52.392Z,99.90
2023-03-18T02:06:19.937Z,99.90
2023-03-18T02:08:48.073Z,99.90
2023-03-18T02:11:16.187Z,99.90
2023-03-18T02:13:46.188Z,99.90
2023-03-18T02:16:25.728Z,99.90
2023-03-18T02:18:56.689Z,99.90
2023-03-18T02:21:52.247Z,99.90
2023-03-18T02:24:40.760Z,99.90
2023-03-18T02:27:42.215Z,99.90
2023-03-18T02:30:18.981Z,99.90
2023-03-18T02:32:48.657Z,99.90
2023-03-18T02:35:15.709Z,99.90
2023-03-18T02:37:42.835Z,99.90
2023-03-18T02:40:20.483Z,99.90
2023-03-18T02:42:48.778Z,99.90
2023-03-18T02:45:58.201Z,99.90
2023-03-18T02:48:30.334Z,99.90
2023-03-18T02:50:57.742Z,99.90
2023-03-18T02:53:24.826Z,99.90
2023-03-18T02:55:52.300Z,99.90
2023-03-18T02:58:19.496Z,99.90
2023-03-18T03:00:46.722Z,99.90
2023-03-18T03:03:14.141Z,99.90
2023-03-18T03:05:42.126Z,99.90
2023-03-18T03:08:10.120Z,99.90
2023-03-18T03:10:37.811Z,99.90
2023-03-18T03:13:06.549Z,99.90
2023-03-18T03:15:34.079Z,99.90
2023-03-18T03:18:01.250Z,99.90
2023-03-18T03:20:29.150Z,99.90
2023-03-18T03:22:56.343Z,99.90
2023-03-18T03:25:23.723Z,99.90
2023-03-18T03:27:51.225Z,99.90
2023-03-18T03:30:18.608Z,99.90
2023-03-18T03:32:46.597Z,99.90
2023-03-18T03:35:16.402Z,99.90
2023-03-18T03:37:44.122Z,99.90
2023-03-18T03:40:15.503Z,99.90
2023-03-18T03:42:42.843Z,99.90
2023-03-18T03:45:11.543Z,99.90
2023-03-18T03:47:38.900Z,99.90
2023-03-18T03:50:07.029Z,99.90
2023-03-18T03:52:34.304Z,99.90
2023-03-18T03:55:01.354Z,99.90
2023-03-18T03:57:28.452Z,99.90
2023-03-18T03:59:56.535Z,99.90
2023-03-18T04:02:24.391Z,99.90
2023-03-18T04:04:51.859Z,99.90
2023-03-18T04:07:19.537Z,99.90
2023-03-18T04:09:46.993Z,99.90
2023-03-18T04:12:14.854Z,99.90
2023-03-18T04:14:41.955Z,99.90
2023-03-18T04:17:09.785Z,99.90
2023-03-18T04:19:37.621Z,99.90
2023-03-18T04:22:04.758Z,99.90
2023-03-18T04:24:32.964Z,99.90
2023-03-18T04:27:00.051Z,99.90
2023-03-18T04:29:27.176Z,99.90
2023-03-18T04:31:54.767Z,99.90
2023-03-18T04:34:22.375Z,99.90
2023-03-18T04:36:49.390Z,99.90
2023-03-18T04:39:16.527Z,99.90
2023-03-18T04:41:43.682Z,99.90
2023-03-18T04:44:10.854Z,99.90
2023-03-18T04:46:38.154Z,99.90
2023-03-18T04:49:08.236Z,99.90
2023-03-18T04:51:35.438Z,99.90
2023-03-18T04:54:02.555Z,99.90
2023-03-18T04:56:30.178Z,99.90
2023-03-18T04:58:57.668Z,99.90
2023-03-18T05:01:24.769Z,99.90
2023-03-18T05:03:52.062Z,99.90
2023-03-18T05:06:30.498Z,99.90
2023-03-18T05:08:59.111Z,99.90
2023-03-18T05:11:27.293Z,99.90
2023-03-18T05:13:54.368Z,99.90
2023-03-18T05:16:21.422Z,99.90
2023-03-18T05:18:48.792Z,99.90
2023-03-18T05:21:16.057Z,99.90
2023-03-18T05:23:43.645Z,99.90
2023-03-18T05:26:11.775Z,99.90
2023-03-18T05:28:55.525Z,99.90
2023-03-18T05:31:26.711Z,99.90
2023-03-18T05:33:58.225Z,99.90
2023-03-18T05:36:27.792Z,99.90
2023-03-18T05:38:58.205Z,99.90
2023-03-18T05:41:29.835Z,99.90
2023-03-18T05:44:02.660Z,99.90
2023-03-18T05:46:34.596Z,99.90
2023-03-18T05:49:04.699Z,99.90
2023-03-18T05:51:32.478Z,99.90
2023-03-18T05:54:04.297Z,99.90
2023-03-18T05:56:36.397Z,99.90
2023-03-18T05:59:08.086Z,99.90
2023-03-18T06:01:36.433Z,99.90
2023-03-18T06:04:06.262Z,99.90
2023-03-18T06:06:42.758Z,99.90
2023-03-18T06:09:16.612Z,99.90
2023-03-18T06:11:48.053Z,99.90
2023-03-18T06:14:15.405Z,99.90
2023-03-18T06:16:42.910Z,99.90
2023-03-18T06:19:15.201Z,99.90
2023-03-18T06:21:47.201Z,99.90
2023-03-18T06:24:18.434Z,99.90
2023-03-18T06:26:50.263Z,99.90
2023-03-18T06:29:24.263Z,99.60
2023-03-18T06:31:52.681Z,97.50
2023-03-18T06:34:24.358Z,95.50
2023-03-18T06:36:52.778Z,94.30
2023-03-18T06:39:20.302Z,93.60
2023-03-18T06:41:47.564Z,92.40
2023-03-18T06:44:15.226Z,92.00
2023-03-18T06:46:47.073Z,88.70
2023-03-18T06:49:19.265Z,85.80
2023-03-18T06:51:52.602Z,83.80
2023-03-18T06:54:23.604Z,82.20
2023-03-18T06:56:51.825Z,82.50
2023-03-18T06:59:25.588Z,80.90
2023-03-18T07:01:57.329Z,80.80
2023-03-18T07:04:29.152Z,79.80
2023-03-18T07:06:58.852Z,80.10
2023-03-18T07:09:28.009Z,80.20
2023-03-18T07:12:01.007Z,78.40
2023-03-18T07:14:32.585Z,77.70
2023-03-18T07:17:03.054Z,77.20
2023-03-18T07:19:35.541Z,76.60
2023-03-18T07:22:07.418Z,75.80
2023-03-18T07:24:36.109Z,75.00
2023-03-18T07:27:10.241Z,74.40
2023-03-18T07:29:38.172Z,74.60
2023-03-18T07:32:05.608Z,73.30
2023-03-18T07:34:34.137Z,72.80
2023-03-18T07:37:06.598Z,71.50
2023-03-18T07:39:39.988Z,70.20
2023-03-18T07:42:09.641Z,71.40
2023-03-18T07:44:37.389Z,68.90
2023-03-18T07:47:04.865Z,68.20
2023-03-18T07:49:34.772Z,68.20
2023-03-18T07:52:02.414Z,69.00
2023-03-18T07:54:29.550Z,68.20
2023-03-18T07:56:56.943Z,66.60
2023-03-18T07:59:24.658Z,66.20
2023-03-18T08:01:51.866Z,66.00
2023-03-18T08:04:19.869Z,65.70
2023-03-18T08:06:47.653Z,66.30
2023-03-18T08:09:19.197Z,65.50
2023-03-18T08:11:51.697Z,65.40
2023-03-18T08:14:19.231Z,65.00
2023-03-18T08:16:52.411Z,64.20
2023-03-18T08:19:24.537Z,64.20
2023-03-18T08:21:57.246Z,63.10
2023-03-18T08:24:25.931Z,61.80
2023-03-18T08:26:57.431Z,62.20
2023-03-18T08:29:27.840Z,62.00
2023-03-18T08:31:59.835Z,62.50
2023-03-18T08:34:31.666Z,62.30
2023-03-18T08:36:59.831Z,61.50
2023-03-18T08:39:34.626Z,59.50
2023-03-18T08:42:09.817Z,59.70
2023-03-18T08:44:37.338Z,60.20
2023-03-18T08:47:04.418Z,59.60
2023-03-18T08:49:31.562Z,60.00
2023-03-18T08:51:58.837Z,59.90
2023-03-18T08:54:26.167Z,59.20
2023-03-18T08:56:55.295Z,59.70
2023-03-18T08:59:22.522Z,59.40
2023-03-18T09:01:49.572Z,58.80
2023-03-18T09:04:16.797Z,59.40
2023-03-18T09:06:43.878Z,59.30
2023-03-18T09:09:11.886Z,59.40
2023-03-18T09:11:40.062Z,58.10
2023-03-18T09:14:07.513Z,57.80
2023-03-18T09:16:35.937Z,58.50
2023-03-18T09:19:03.964Z,59.40
2023-03-18T09:21:31.687Z,58.50
2023-03-18T09:23:59.187Z,59.00
2023-03-18T09:26:26.409Z,57.50
2023-03-18T09:28:53.739Z,57.30
2023-03-18T09:31:21.061Z,57.10
2023-03-18T09:33:48.558Z,56.80
2023-03-18T09:36:15.859Z,56.00
2023-03-18T09:38:42.906Z,54.60
2023-03-18T09:41:38.519Z,55.90
2023-03-18T09:44:20.926Z,55.40
2023-03-18T09:46:53.823Z,54.90
2023-03-18T09:49:29.967Z,55.30
2023-03-18T09:52:16.950Z,54.70
2023-03-18T09:54:53.030Z,54.30
2023-03-18T09:57:38.969Z,54.20
2023-03-18T10:00:11.794Z,53.40
2023-03-18T10:02:48.533Z,53.50
2023-03-18T10:05:21.901Z,53.30
2023-03-18T10:07:53.076Z,53.50
2023-03-18T10:10:32.074Z,54.90
2023-03-18T10:13:28.788Z,53.20
2023-03-18T10:15:58.786Z,52.90
2023-03-18T10:18:38.281Z,54.00
2023-03-18T10:21:25.217Z,52.80
2023-03-18T10:24:21.705Z,53.10
2023-03-18T10:27:09.705Z,52.50
2023-03-18T10:29:52.464Z,53.00
2023-03-18T10:32:42.854Z,54.20
2023-03-18T10:35:47.902Z,53.50
2023-03-18T10:38:24.353Z,52.70
2023-03-18T10:40:52.660Z,52.70
2023-03-18T10:43:28.403Z,52.40
2023-03-18T10:46:04.438Z,51.80
2023-03-18T10:48:35.879Z,52.60
2023-03-18T10:51:02.969Z,51.90
2023-03-18T10:53:54.154Z,52.20
2023-03-18T10:56:22.588Z,52.00
2023-03-18T10:58:52.502Z,51.90
2023-03-18T11:01:23.402Z,51.80
2023-03-18T11:03:54.946Z,50.90
2023-03-18T11:06:34.872Z,51.70
2023-03-18T11:09:08.600Z,50.20
2023-03-18T11:11:39.696Z,50.80
2023-03-18T11:14:13.302Z,50.50
2023-03-18T11:16:42.699Z,50.70
2023-03-18T11:19:52.186Z,50.20
2023-03-18T11:22:24.877Z,47.50
2023-03-18T11:25:24.326Z,46.70
2023-03-18T11:27:58.418Z,46.80
2023-03-18T11:30:34.687Z,46.60
2023-03-18T11:33:14.358Z,46.80
2023-03-18T11:35:45.494Z,46.70
2023-03-18T11:38:30.677Z,46.90
2023-03-18T11:41:10.255Z,46.40
2023-03-18T11:43:38.604Z,46.30
2023-03-18T11:46:08.414Z,46.60
2023-03-18T11:48:37.006Z,44.80
2023-03-18T11:51:25.206Z,45.10
2023-03-18T11:53:56.677Z,45.90
2023-03-18T11:56:41.697Z,46.00
2023-03-18T11:59:57.081Z,44.40
2023-03-18T12:02:42.842Z,44.40
2023-03-18T12:05:25.826Z,44.40
2023-03-18T12:08:09.902Z,43.70
2023-03-18T12:10:48.815Z,43.70
2023-03-18T12:13:19.696Z,43.10
2023-03-18T12:15:49.740Z,43.00
2023-03-18T12:18:26.007Z,41.90
2023-03-18T12:20:55.615Z,42.50
2023-03-18T12:23:54.017Z,40.90
2023-03-18T12:26:38.757Z,40.40
2023-03-18T12:29:14.824Z,39.60
2023-03-18T12:31:56.444Z,40.30
2023-03-18T12:35:01.453Z,40.70
2023-03-18T12:37:47.501Z,41.70
2023-03-18T12:40:37.565Z,42.30
2023-03-18T12:43:19.794Z,40.40
2023-03-18T12:45:51.119Z,40.40
2023-03-18T12:48:43.247Z,41.70
2023-03-18T12:51:15.491Z,41.90
2023-03-18T12:53:58.428Z,41.50
2023-03-18T12:56:30.197Z,41.10
2023-03-18T12:59:46.360Z,40.70
2023-03-18T13:02:44.333Z,42.20
2023-03-18T13:05:27.705Z,40.80
2023-03-18T13:08:06.836Z,41.20
2023-03-18T13:10:36.587Z,41.50
2023-03-18T13:13:08.772Z,41.20
2023-03-18T13:15:43.289Z,41.10
2023-03-18T13:18:20.797Z,41.00
2023-03-18T13:20:49.628Z,41.20
2023-03-18T13:23:32.937Z,42.70
2023-03-18T13:26:25.752Z,41.50
2023-03-18T13:29:19.918Z,41.90
2023-03-18T13:31:59.533Z,42.00
2023-03-18T13:34:44.051Z,41.00
2023-03-18T13:37:34.735Z,41.30
2023-03-18T13:40:31.056Z,41.70
2023-03-18T13:43:02.604Z,40.00
2023-03-18T13:45:37.883Z,40.00
2023-03-18T13:48:36.997Z,39.40
2023-03-18T13:51:28.226Z,39.30
2023-03-18T13:54:02.410Z,40.60
2023-03-18T13:56:40.457Z,39.90
2023-03-18T13:59:31.116Z,39.50
2023-03-18T14:02:19.701Z,40.00
2023-03-18T14:04:49.515Z,40.20
2023-03-18T14:07:22.015Z,39.20
2023-03-18T14:10:17.092Z,39.90
2023-03-18T14:12:48.040Z,40.50
2023-03-18T14:15:15.846Z,39.60
2023-03-18T14:17:53.161Z,39.40
2023-03-18T14:20:22.040Z,40.00
2023-03-18T14:22:55.095Z,40.30
2023-03-18T14:25:31.496Z,39.90
2023-03-18T14:28:14.915Z,40.30
2023-03-18T14:31:08.834Z,40.10
2023-03-18T14:33:52.030Z,39.20
2023-03-18T14:36:47.634Z,40.20
2023-03-18T14:39:22.294Z,39.70
2023-03-18T14:41:55.646Z,39.60
2023-03-18T14:44:34.468Z,39.10
2023-03-18T14:47:06.854Z,38.80
2023-03-18T14:49:59.896Z,37.90
2023-03-18T14:52:39.745Z,38.40
2023-03-18T14:55:29.478Z,39.20
2023-03-18T14:58:05.256Z,39.30
2023-03-18T15:00:43.018Z,39.20
2023-03-18T15:03:30.996Z,39.10
2023-03-18T15:06:09.153Z,40.00
2023-03-18T15:08:54.401Z,40.00
2023-03-18T15:11:31.548Z,40.30
2023-03-18T15:14:09.787Z,40.50
2023-03-18T15:16:44.634Z,41.20
2023-03-18T15:19:23.503Z,40.90
2023-03-18T15:21:54.470Z,40.80
2023-03-18T15:24:33.047Z,40.80
2023-03-18T15:27:13.405Z,40.20
2023-03-18T15:30:02.966Z,40.70
2023-03-18T15:32:53.044Z,41.40
2023-03-18T15:35:33.640Z,41.30
2023-03-18T15:38:22.950Z,41.10
2023-03-18T15:41:01.519Z,41.40
2023-03-18T15:44:00.276Z,41.40
2023-03-18T15:46:34.828Z,41.90
2023-03-18T15:49:09.379Z,42.00
2023-03-18T15:51:45.236Z,41.40
2023-03-18T15:54:42.186Z,41.50
2023-03-18T15:57:47.528Z,41.50
2023-03-18T16:00:16.446Z,41.90
2023-03-18T16:02:51.705Z,41.70
2023-03-18T16:05:26.269Z,42.30
2023-03-18T16:08:01.421Z,42.10
2023-03-18T16:10:28.620Z,42.60
2023-03-18T16:13:02.023Z,41.90
2023-03-18T16:15:37.312Z,42.50
2023-03-18T16:18:14.732Z,42.20
2023-03-18T16:20:52.535Z,42.40
2023-03-18T16:23:30.531Z,42.90
2023-03-18T16:26:06.126Z,43.00
2023-03-18T16:28:47.022Z,43.20
2023-03-18T16:31:23.384Z,43.80
2023-03-18T16:34:00.107Z,44.10
2023-03-18T16:36:41.372Z,44.40
2023-03-18T16:39:33.225Z,44.80
2023-03-18T16:42:11.186Z,45.00
2023-03-18T16:44:41.633Z,45.50
2023-03-18T16:47:31.096Z,45.70
2023-03-18T16:50:03.324Z,46.00
2023-03-18T16:52:34.408Z,46.30
2023-03-18T16:55:02.584Z,46.40
2023-03-18T16:57:29.808Z,46.50
2023-03-18T16:59:58.298Z,46.80
2023-03-18T17:02:35.953Z,47.00
2023-03-18T17:05:04.793Z,47.00
2023-03-18T17:07:40.632Z,47.20
2023-03-18T17:10:11.637Z,47.50
2023-03-18T17:12:47.907Z,48.00
2023-03-18T17:15:27.404Z,49.60
2023-03-18T17:18:02.650Z,49.70
2023-03-18T17:20:38.802Z,50.40
2023-03-18T17:23:06.798Z,50.80
2023-03-18T17:25:34.156Z,51.30
2023-03-18T17:28:15.284Z,51.80
2023-03-18T17:30:52.304Z,52.10
2023-03-18T17:33:36.268Z,53.00
2023-03-18T17:36:13.836Z,52.90
2023-03-18T17:38:49.427Z,53.30
2023-03-18T17:41:23.172Z,53.80
2023-03-18T17:43:55.390Z,54.50
2023-03-18T17:46:31.405Z,54.60
2023-03-18T17:49:09.650Z,55.30
2023-03-18T17:51:39.034Z,55.60
2023-03-18T17:54:13.088Z,56.00
2023-03-18T17:56:45.231Z,56.10
2023-03-18T17:59:17.968Z,56.20
2023-03-18T18:01:54.964Z,56.00
2023-03-18T18:04:34.207Z,55.50
2023-03-18T18:07:09.667Z,55.90
2023-03-18T18:09:38.038Z,56.30
2023-03-18T18:12:08.368Z,56.50
2023-03-18T18:14:44.346Z,56.70
2023-03-18T18:17:21.130Z,57.00
2023-03-18T18:19:55.209Z,57.30
2023-03-18T18:22:28.537Z,57.70
2023-03-18T18:25:06.236Z,58.30
2023-03-18T18:27:43.605Z,58.40
2023-03-18T18:30:18.650Z,58.70
2023-03-18T18:32:54.653Z,58.60
2023-03-18T18:35:25.794Z,58.90
2023-03-18T18:37:53.608Z,59.20
2023-03-18T18:40:22.480Z,60.20
2023-03-18T18:42:59.694Z,60.90
2023-03-18T18:45:28.388Z,60.90
2023-03-18T18:47:58.561Z,61.70
2023-03-18T18:50:32.624Z,62.30
2023-03-18T18:53:02.123Z,62.60
2023-03-18T18:55:35.008Z,63.20
2023-03-18T18:58:12.103Z,63.60
2023-03-18T19:00:44.584Z,63.90
2023-03-18T19:03:25.940Z,63.90
2023-03-18T19:06:03.612Z,64.50
2023-03-18T19:08:43.917Z,64.40
2023-03-18T19:11:20.097Z,64.90
2023-03-18T19:13:57.923Z,65.10
2023-03-18T19:16:38.466Z,65.20
2023-03-18T19:19:17.907Z,66.10
2023-03-18T19:21:54.007Z,66.40
2023-03-18T19:24:27.089Z,66.60
2023-03-18T19:26:56.334Z,66.90
2023-03-18T19:29:23.903Z,67.40
2023-03-18T19:31:51.313Z,67.60
2023-03-18T19:34:20.305Z,68.00
2023-03-18T19:36:56.105Z,68.40
2023-03-18T19:39:24.686Z,68.40
2023-03-18T19:41:52.361Z,69.40
2023-03-18T19:44:22.074Z,70.10
2023-03-18T19:46:51.954Z,72.70
2023-03-18T19:49:25.034Z,73.00
2023-03-18T19:51:52.651Z,72.60
2023-03-18T19:54:34.133Z,72.60
2023-03-18T19:57:38.918Z,72.00
2023-03-18T20:00:20.104Z,72.00
2023-03-18T20:02:49.344Z,72.50
2023-03-18T20:05:19.509Z,72.50
2023-03-18T20:07:47.561Z,72.70
2023-03-18T20:10:15.403Z,72.90
2023-03-18T20:12:50.763Z,73.30
2023-03-18T20:15:25.265Z,73.70
2023-03-18T20:17:54.003Z,74.20
2023-03-18T20:20:24.872Z,74.50
2023-03-18T20:23:33.845Z,74.80
2023-03-18T20:26:01.199Z,75.00
2023-03-18T20:28:28.384Z,75.10
2023-03-18T20:30:57.189Z,75.10
2023-03-18T20:33:24.619Z,75.20
2023-03-18T20:35:56.840Z,75.20
2023-03-18T20:38:39.121Z,75.30
2023-03-18T20:41:07.345Z,75.10
2023-03-18T20:43:37.657Z,75.30
2023-03-18T20:46:05.736Z,75.50
2023-03-18T20:48:33.052Z,76.50
2023-03-18T20:51:00.119Z,76.70
2023-03-18T20:53:32.003Z,76.80
2023-03-18T20:55:59.028Z,77.50
2023-03-18T20:58:28.208Z,77.70
2023-03-18T21:00:55.640Z,77.70
2023-03-18T21:03:31.003Z,78.20
2023-03-18T21:06:00.778Z,78.20
2023-03-18T21:08:29.106Z,78.10
2023-03-18T21:11:00.353Z,78.00
2023-03-18T21:13:33.448Z,77.80
2023-03-18T21:16:01.596Z,78.00
2023-03-18T21:18:29.666Z,78.30
2023-03-18T21:20:57.790Z,78.80
2023-03-18T21:23:30.556Z,78.80
2023-03-18T21:25:58.737Z,79.40
2023-03-18T21:28:29.144Z,78.70
2023-03-18T21:31:00.004Z,78.70
2023-03-18T21:33:35.322Z,79.00
2023-03-18T21:36:03.334Z,79.10
2023-03-18T21:38:32.633Z,79.60
2023-03-18T21:41:12.071Z,79.80
2023-03-18T21:43:40.778Z,80.00
2023-03-18T21:46:16.415Z,80.10
2023-03-18T21:48:43.781Z,80.50
2023-03-18T21:51:37.611Z,80.90
2023-03-18T21:54:06.599Z,81.10
2023-03-18T21:56:33.849Z,81.10
2023-03-18T21:59:01.205Z,81.70
2023-03-18T22:01:32.373Z,82.00
2023-03-18T22:04:00.027Z,82.40
2023-03-18T22:06:27.547Z,82.70
2023-03-18T22:08:57.004Z,83.10
2023-03-18T22:11:24.287Z,83.60
2023-03-18T22:13:51.548Z,83.90
2023-03-18T22:16:19.128Z,84.10
2023-03-18T22:18:47.516Z,84.60
2023-03-18T22:21:26.507Z,85.20
2023-03-18T22:23:54.355Z,85.30
2023-03-18T22:26:22.255Z,86.00
2023-03-18T22:28:50.762Z,87.30
2023-03-18T22:31:27.581Z,86.80
2023-03-18T22:33:55.071Z,87.00
2023-03-18T22:36:23.931Z,87.50
2023-03-18T22:38:51.203Z,87.70
2023-03-18T22:41:24.049Z,89.90
2023-03-18T22:43:51.847Z,88.80
2023-03-18T22:46:19.029Z,88.80
2023-03-18T22:48:46.196Z,89.40
2023-03-18T22:51:23.680Z,89.70
2023-03-18T22:53:53.447Z,90.30
2023-03-18T22:56:22.378Z,90.80
2023-03-18T22:58:49.949Z,90.80
2023-03-18T23:01:19.898Z,90.90
2023-03-18T23:03:47.726Z,91.10
2023-03-18T23:06:20.387Z,91.60
2023-03-18T23:08:47.711Z,91.90
2023-03-18T23:11:15.252Z,92.40
2023-03-18T23:13:44.508Z,93.00
2023-03-18T23:16:17.119Z,93.40
2023-03-18T23:18:44.387Z,93.70
2023-03-18T23:21:17.214Z,94.20
2023-03-18T23:23:44.661Z,95.60
2023-03-18T23:26:12.082Z,95.30
2023-03-18T23:28:44.441Z,96.70
2023-03-18T23:31:13.305Z,97.90
2023-03-18T23:33:40.675Z,97.20
2023-03-18T23:36:08.381Z,97.50
2023-03-18T23:38:35.630Z,98.10
2023-03-18T23:41:02.875Z,98.60
2023-03-18T23:43:29.969Z,98.50
2023-03-18T23:45:57.216Z,98.40
2023-03-18T23:48:24.446Z,98.40
2023-03-18T23:50:51.549Z,98.50
2023-03-18T23:53:18.703Z,98.30
2023-03-18T23:55:48.301Z,98.30
2023-03-18T23:58:15.708Z,99.40
